Terminal Aerodrome Forecast
Issued by NWS

Current Version | Previous Version | Text Only | Print | Product List | Glossary Off
Versions: 1 2 3 4 5 6 7 8 9 10 11 12 13 14 15 16 17 18 19 20 21 22 23 24 25

000
FTUS41 KRLX 150253 AAA
TAFCKB
TAF AMD
KCKB 150253Z 1503/1524 VRB03KT P6SM BKN045
     FM150700 00000KT 4SM SHRA OVC020
     FM150800 00000KT 3SM SHRA OVC009
     FM150900 00000KT 3SM SHRA BR OVC006
     FM151100 00000KT 3SM BR OVC005
     FM151500 00000KT P6SM BKN011
     FM151700 VRB03KT P6SM SCT024=

USA.gov is the U.S. government's official web portal to all federal, state and local government web resources and services.